Terminal Aerodrome Forecast
Issued by NWS

Home | Current Version | Previous Version | Graphics & Text | Print | Product List | Glossary On
Versions: 1 2 3 4 5 6 7 8 9 10 11 12 13 14 15 16 17 18 19 20 21 22 23 24
000
FTUS43 KGRB 011500 AAC
TAFCWA
TAF AMD
KCWA 011518Z 0115/0212 21009KT P6SM -SN OVC009
     FM011800 23009KT P6SM -SN SCT010 OVC020
     FM012100 27011G18KT P6SM SCT025 BKN080
     FM020100 29010G17KT P6SM SCT025
     FM020800 30007KT P6SM SKC=

USA.gov is the U.S. government's official web portal to all federal, state and local government web resources and services.